sensor_id;sensor_type;location;lat;lon;timestamp;P1;durP1;ratioP1;P2;durP2;ratioP2
30147;SDS011;16960;49.404;8.248;2023-12-28T00:01:48;2.87;;;2.67;;
30147;SDS011;16960;49.404;8.248;2023-12-28T00:04:15;2.80;;;2.50;;
30147;SDS011;16960;49.404;8.248;2023-12-28T00:06:42;3.10;;;2.73;;
30147;SDS011;16960;49.404;8.248;2023-12-28T00:09:09;2.43;;;2.23;;
30147;SDS011;16960;49.404;8.248;2023-12-28T00:11:36;2.80;;;2.50;;
30147;SDS011;16960;49.404;8.248;2023-12-28T00:14:03;3.17;;;2.63;;
30147;SDS011;16960;49.404;8.248;2023-12-28T00:16:30;4.23;;;3.43;;
30147;SDS011;16960;49.404;8.248;2023-12-28T00:19:27;3.20;;;2.90;;
30147;SDS011;16960;49.404;8.248;2023-12-28T00:21:54;2.90;;;2.60;;
30147;SDS011;16960;49.404;8.248;2023-12-28T00:24:21;3.50;;;2.50;;
30147;SDS011;16960;49.404;8.248;2023-12-28T00:26:48;2.87;;;2.67;;
30147;SDS011;16960;49.404;8.248;2023-12-28T00:29:15;2.70;;;2.50;;
30147;SDS011;16960;49.404;8.248;2023-12-28T00:31:42;3.13;;;2.83;;
30147;SDS011;16960;49.404;8.248;2023-12-28T00:34:09;3.77;;;2.97;;
30147;SDS011;16960;49.404;8.248;2023-12-28T00:36:37;3.67;;;2.80;;
30147;SDS011;16960;49.404;8.248;2023-12-28T00:39:04;2.87;;;2.67;;
30147;SDS011;16960;49.404;8.248;2023-12-28T00:41:31;3.07;;;2.70;;
30147;SDS011;16960;49.404;8.248;2023-12-28T00:43:58;3.07;;;2.77;;
30147;SDS011;16960;49.404;8.248;2023-12-28T00:46:25;3.10;;;2.80;;
30147;SDS011;16960;49.404;8.248;2023-12-28T00:48:52;3.37;;;2.97;;
30147;SDS011;16960;49.404;8.248;2023-12-28T00:51:19;3.17;;;2.77;;
30147;SDS011;16960;49.404;8.248;2023-12-28T00:53:47;2.93;;;2.73;;
30147;SDS011;16960;49.404;8.248;2023-12-28T00:56:15;3.47;;;2.87;;
30147;SDS011;16960;49.404;8.248;2023-12-28T00:58:42;3.17;;;2.87;;
30147;SDS011;16960;49.404;8.248;2023-12-28T01:01:09;3.40;;;2.73;;
30147;SDS011;16960;49.404;8.248;2023-12-28T01:03:36;2.43;;;2.23;;
30147;SDS011;16960;49.404;8.248;2023-12-28T01:06:04;2.73;;;2.53;;
30147;SDS011;16960;49.404;8.248;2023-12-28T01:08:31;2.70;;;2.50;;
30147;SDS011;16960;49.404;8.248;2023-12-28T01:11:00;2.63;;;2.43;;
30147;SDS011;16960;49.404;8.248;2023-12-28T01:13:27;4.50;;;3.00;;
30147;SDS011;16960;49.404;8.248;2023-12-28T01:15:55;3.17;;;2.87;;
30147;SDS011;16960;49.404;8.248;2023-12-28T01:18:22;2.80;;;2.50;;
30147;SDS011;16960;49.404;8.248;2023-12-28T01:20:49;3.20;;;2.90;;
30147;SDS011;16960;49.404;8.248;2023-12-28T01:23:16;3.10;;;2.60;;
30147;SDS011;16960;49.404;8.248;2023-12-28T01:25:43;2.97;;;2.67;;
30147;SDS011;16960;49.404;8.248;2023-12-28T01:28:11;2.60;;;2.33;;
30147;SDS011;16960;49.404;8.248;2023-12-28T01:30:38;3.17;;;2.90;;
30147;SDS011;16960;49.404;8.248;2023-12-28T01:33:05;2.93;;;2.63;;
30147;SDS011;16960;49.404;8.248;2023-12-28T01:35:32;3.77;;;3.47;;
30147;SDS011;16960;49.404;8.248;2023-12-28T01:37:59;3.00;;;2.70;;
30147;SDS011;16960;49.404;8.248;2023-12-28T01:40:26;3.97;;;2.70;;
30147;SDS011;16960;49.404;8.248;2023-12-28T01:42:53;3.07;;;2.77;;
30147;SDS011;16960;49.404;8.248;2023-12-28T01:45:22;3.90;;;3.50;;
30147;SDS011;16960;49.404;8.248;2023-12-28T01:47:48;3.03;;;2.73;;
30147;SDS011;16960;49.404;8.248;2023-12-28T01:50:17;3.93;;;2.80;;
30147;SDS011;16960;49.404;8.248;2023-12-28T01:52:44;2.77;;;2.57;;
30147;SDS011;16960;49.404;8.248;2023-12-28T01:55:12;2.70;;;2.50;;
30147;SDS011;16960;49.404;8.248;2023-12-28T01:57:39;2.80;;;2.60;;
30147;SDS011;16960;49.404;8.248;2023-12-28T02:00:07;3.10;;;2.50;;
30147;SDS011;16960;49.404;8.248;2023-12-28T02:02:36;3.57;;;2.73;;
30147;SDS011;16960;49.404;8.248;2023-12-28T02:05:03;2.70;;;2.50;;
30147;SDS011;16960;49.404;8.248;2023-12-28T02:07:30;2.77;;;2.57;;
30147;SDS011;16960;49.404;8.248;2023-12-28T02:09:59;2.50;;;2.30;;
30147;SDS011;16960;49.404;8.248;2023-12-28T02:12:26;3.10;;;2.80;;
30147;SDS011;16960;49.404;8.248;2023-12-28T02:14:53;2.77;;;2.57;;
30147;SDS011;16960;49.404;8.248;2023-12-28T02:17:21;3.23;;;2.93;;
30147;SDS011;16960;49.404;8.248;2023-12-28T02:19:56;2.57;;;2.37;;
30147;SDS011;16960;49.404;8.248;2023-12-28T02:22:25;3.63;;;2.87;;
30147;SDS011;16960;49.404;8.248;2023-12-28T02:24:59;3.17;;;2.87;;
30147;SDS011;16960;49.404;8.248;2023-12-28T02:27:28;2.70;;;2.50;;
30147;SDS011;16960;49.404;8.248;2023-12-28T02:29:56;3.13;;;2.83;;
30147;SDS011;16960;49.404;8.248;2023-12-28T02:32:25;3.57;;;2.73;;
30147;SDS011;16960;49.404;8.248;2023-12-28T02:35:05;3.40;;;2.83;;
30147;SDS011;16960;49.404;8.248;2023-12-28T02:37:38;2.77;;;2.57;;
30147;SDS011;16960;49.404;8.248;2023-12-28T02:40:07;2.60;;;2.40;;
30147;SDS011;16960;49.404;8.248;2023-12-28T02:42:35;3.87;;;3.10;;
30147;SDS011;16960;49.404;8.248;2023-12-28T02:45:03;4.20;;;2.73;;
30147;SDS011;16960;49.404;8.248;2023-12-28T02:47:31;3.07;;;2.77;;
30147;SDS011;16960;49.404;8.248;2023-12-28T02:49:58;2.70;;;2.50;;
30147;SDS011;16960;49.404;8.248;2023-12-28T02:52:25;2.87;;;2.60;;
30147;SDS011;16960;49.404;8.248;2023-12-28T02:54:52;3.33;;;2.87;;
30147;SDS011;16960;49.404;8.248;2023-12-28T02:57:20;2.90;;;2.70;;
30147;SDS011;16960;49.404;8.248;2023-12-28T02:59:48;3.20;;;2.90;;
30147;SDS011;16960;49.404;8.248;2023-12-28T03:02:35;2.63;;;2.37;;
30147;SDS011;16960;49.404;8.248;2023-12-28T03:05:03;3.17;;;2.53;;
30147;SDS011;16960;49.404;8.248;2023-12-28T03:07:31;3.30;;;2.80;;
30147;SDS011;16960;49.404;8.248;2023-12-28T03:09:58;4.43;;;2.93;;
30147;SDS011;16960;49.404;8.248;2023-12-28T03:12:26;3.10;;;2.80;;
30147;SDS011;16960;49.404;8.248;2023-12-28T03:14:54;2.90;;;2.70;;
30147;SDS011;16960;49.404;8.248;2023-12-28T03:17:21;2.87;;;2.60;;
30147;SDS011;16960;49.404;8.248;2023-12-28T03:19:48;2.30;;;2.10;;
30147;SDS011;16960;49.404;8.248;2023-12-28T03:22:15;2.93;;;2.70;;
30147;SDS011;16960;49.404;8.248;2023-12-28T03:24:42;2.40;;;2.20;;
30147;SDS011;16960;49.404;8.248;2023-12-28T03:27:09;3.30;;;2.70;;
30147;SDS011;16960;49.404;8.248;2023-12-28T03:29:37;3.10;;;2.80;;
30147;SDS011;16960;49.404;8.248;2023-12-28T03:32:05;2.97;;;2.63;;
30147;SDS011;16960;49.404;8.248;2023-12-28T03:34:32;3.10;;;2.27;;
30147;SDS011;16960;49.404;8.248;2023-12-28T03:36:59;2.73;;;2.53;;
30147;SDS011;16960;49.404;8.248;2023-12-28T03:39:26;2.87;;;2.63;;
30147;SDS011;16960;49.404;8.248;2023-12-28T03:41:53;2.70;;;2.37;;
30147;SDS011;16960;49.404;8.248;2023-12-28T03:44:20;2.80;;;2.40;;
30147;SDS011;16960;49.404;8.248;2023-12-28T03:46:50;2.43;;;2.23;;
30147;SDS011;16960;49.404;8.248;2023-12-28T03:49:17;2.30;;;2.10;;
30147;SDS011;16960;49.404;8.248;2023-12-28T03:51:44;2.60;;;2.40;;
30147;SDS011;16960;49.404;8.248;2023-12-28T03:54:11;2.30;;;2.10;;
30147;SDS011;16960;49.404;8.248;2023-12-28T03:56:38;2.30;;;2.10;;
30147;SDS011;16960;49.404;8.248;2023-12-28T03:59:05;2.30;;;2.10;;
30147;SDS011;16960;49.404;8.248;2023-12-28T04:01:32;2.40;;;2.20;;
30147;SDS011;16960;49.404;8.248;2023-12-28T04:04:01;2.20;;;2.00;;
30147;SDS011;16960;49.404;8.248;2023-12-28T04:06:28;2.20;;;2.00;;
30147;SDS011;16960;49.404;8.248;2023-12-28T04:08:55;1.90;;;1.80;;
30147;SDS011;16960;49.404;8.248;2023-12-28T04:11:22;2.27;;;2.07;;
30147;SDS011;16960;49.404;8.248;2023-12-28T04:13:49;2.40;;;2.20;;
30147;SDS011;16960;49.404;8.248;2023-12-28T04:16:16;2.37;;;2.10;;
30147;SDS011;16960;49.404;8.248;2023-12-28T04:18:43;2.50;;;2.30;;
30147;SDS011;16960;49.404;8.248;2023-12-28T04:21:12;2.40;;;2.20;;
30147;SDS011;16960;49.404;8.248;2023-12-28T04:23:40;2.03;;;1.93;;
30147;SDS011;16960;49.404;8.248;2023-12-28T04:26:07;3.00;;;2.03;;
30147;SDS011;16960;49.404;8.248;2023-12-28T04:28:34;2.23;;;1.87;;
30147;SDS011;16960;49.404;8.248;2023-12-28T04:31:02;2.47;;;2.27;;
30147;SDS011;16960;49.404;8.248;2023-12-28T04:33:29;2.13;;;1.87;;
30147;SDS011;16960;49.404;8.248;2023-12-28T04:35:57;2.30;;;2.17;;
30147;SDS011;16960;49.404;8.248;2023-12-28T04:38:28;2.20;;;2.00;;
30147;SDS011;16960;49.404;8.248;2023-12-28T04:40:54;2.40;;;2.10;;
30147;SDS011;16960;49.404;8.248;2023-12-28T04:43:22;2.40;;;2.20;;
30147;SDS011;16960;49.404;8.248;2023-12-28T04:45:49;2.30;;;1.90;;
30147;SDS011;16960;49.404;8.248;2023-12-28T04:48:16;1.90;;;1.80;;
30147;SDS011;16960;49.404;8.248;2023-12-28T04:50:46;1.93;;;1.60;;
30147;SDS011;16960;49.404;8.248;2023-12-28T04:53:14;2.17;;;1.97;;
30147;SDS011;16960;49.404;8.248;2023-12-28T04:55:42;1.97;;;1.77;;
30147;SDS011;16960;49.404;8.248;2023-12-28T04:58:10;1.90;;;1.80;;
30147;SDS011;16960;49.404;8.248;2023-12-28T05:00:37;1.70;;;1.60;;
30147;SDS011;16960;49.404;8.248;2023-12-28T05:03:04;2.40;;;2.20;;
30147;SDS011;16960;49.404;8.248;2023-12-28T05:05:32;2.90;;;2.40;;
30147;SDS011;16960;49.404;8.248;2023-12-28T05:11:26;1.83;;;1.73;;
30147;SDS011;16960;49.404;8.248;2023-12-28T05:13:56;2.00;;;1.90;;
30147;SDS011;16960;49.404;8.248;2023-12-28T05:16:23;1.77;;;1.67;;
30147;SDS011;16960;49.404;8.248;2023-12-28T05:18:50;2.50;;;2.30;;
30147;SDS011;16960;49.404;8.248;2023-12-28T05:21:17;1.93;;;1.83;;
30147;SDS011;16960;49.404;8.248;2023-12-28T05:23:44;1.70;;;1.60;;
30147;SDS011;16960;49.404;8.248;2023-12-28T05:26:11;1.90;;;1.77;;
30147;SDS011;16960;49.404;8.248;2023-12-28T05:28:40;1.73;;;1.63;;
30147;SDS011;16960;49.404;8.248;2023-12-28T05:31:06;1.80;;;1.43;;
30147;SDS011;16960;49.404;8.248;2023-12-28T05:33:33;1.70;;;1.60;;
30147;SDS011;16960;49.404;8.248;2023-12-28T05:36:00;1.63;;;1.53;;
30147;SDS011;16960;49.404;8.248;2023-12-28T05:38:27;1.90;;;1.70;;
30147;SDS011;16960;49.404;8.248;2023-12-28T05:40:54;1.97;;;1.67;;
30147;SDS011;16960;49.404;8.248;2023-12-28T05:43:21;1.73;;;1.60;;
30147;SDS011;16960;49.404;8.248;2023-12-28T05:45:49;2.90;;;1.90;;
30147;SDS011;16960;49.404;8.248;2023-12-28T05:48:16;1.77;;;1.60;;
30147;SDS011;16960;49.404;8.248;2023-12-28T05:50:43;1.60;;;1.50;;
30147;SDS011;16960;49.404;8.248;2023-12-28T05:53:10;1.73;;;1.63;;
30147;SDS011;16960;49.404;8.248;2023-12-28T05:55:39;1.53;;;1.43;;
30147;SDS011;16960;49.404;8.248;2023-12-28T05:58:06;1.80;;;1.67;;
30147;SDS011;16960;49.404;8.248;2023-12-28T06:00:33;1.50;;;1.40;;
30147;SDS011;16960;49.404;8.248;2023-12-28T06:03:02;1.30;;;1.20;;
30147;SDS011;16960;49.404;8.248;2023-12-28T06:05:30;1.73;;;1.60;;
30147;SDS011;16960;49.404;8.248;2023-12-28T06:07:57;1.90;;;1.80;;
30147;SDS011;16960;49.404;8.248;2023-12-28T06:10:23;1.30;;;1.20;;
30147;SDS011;16960;49.404;8.248;2023-12-28T06:12:50;2.43;;;1.80;;
30147;SDS011;16960;49.404;8.248;2023-12-28T06:15:17;2.03;;;1.90;;
30147;SDS011;16960;49.404;8.248;2023-12-28T06:17:44;1.67;;;1.57;;
30147;SDS011;16960;49.404;8.248;2023-12-28T06:20:12;1.93;;;1.83;;
30147;SDS011;16960;49.404;8.248;2023-12-28T06:22:39;1.60;;;1.50;;
30147;SDS011;16960;49.404;8.248;2023-12-28T06:25:07;1.60;;;1.50;;
30147;SDS011;16960;49.404;8.248;2023-12-28T06:27:37;1.77;;;1.67;;
30147;SDS011;16960;49.404;8.248;2023-12-28T06:30:04;2.30;;;2.03;;
30147;SDS011;16960;49.404;8.248;2023-12-28T06:32:32;1.57;;;1.47;;
30147;SDS011;16960;49.404;8.248;2023-12-28T06:34:59;1.90;;;1.80;;
30147;SDS011;16960;49.404;8.248;2023-12-28T06:37:27;1.33;;;1.23;;
30147;SDS011;16960;49.404;8.248;2023-12-28T06:39:54;1.83;;;1.73;;
30147;SDS011;16960;49.404;8.248;2023-12-28T06:42:21;1.70;;;1.60;;
30147;SDS011;16960;49.404;8.248;2023-12-28T06:44:48;1.90;;;1.53;;
30147;SDS011;16960;49.404;8.248;2023-12-28T06:47:15;1.33;;;1.23;;
30147;SDS011;16960;49.404;8.248;2023-12-28T06:49:42;1.97;;;1.77;;
30147;SDS011;16960;49.404;8.248;2023-12-28T06:52:08;1.53;;;1.40;;
30147;SDS011;16960;49.404;8.248;2023-12-28T06:54:37;1.40;;;1.30;;
30147;SDS011;16960;49.404;8.248;2023-12-28T06:57:04;1.57;;;1.47;;
30147;SDS011;16960;49.404;8.248;2023-12-28T06:59:31;1.53;;;1.43;;
30147;SDS011;16960;49.404;8.248;2023-12-28T07:01:57;1.70;;;1.30;;
30147;SDS011;16960;49.404;8.248;2023-12-28T07:04:24;1.60;;;1.50;;
30147;SDS011;16960;49.404;8.248;2023-12-28T07:06:54;1.83;;;1.70;;
30147;SDS011;16960;49.404;8.248;2023-12-28T07:09:21;1.50;;;1.40;;
30147;SDS011;16960;49.404;8.248;2023-12-28T07:11:49;1.50;;;1.37;;
30147;SDS011;16960;49.404;8.248;2023-12-28T07:14:16;1.37;;;1.27;;
30147;SDS011;16960;49.404;8.248;2023-12-28T07:16:43;1.63;;;1.40;;
30147;SDS011;16960;49.404;8.248;2023-12-28T07:19:10;1.50;;;1.33;;
30147;SDS011;16960;49.404;8.248;2023-12-28T07:21:37;1.90;;;1.33;;
30147;SDS011;16960;49.404;8.248;2023-12-28T07:24:04;1.80;;;1.63;;
30147;SDS011;16960;49.404;8.248;2023-12-28T07:26:31;2.03;;;1.20;;
30147;SDS011;16960;49.404;8.248;2023-12-28T07:29:00;2.30;;;1.40;;
30147;SDS011;16960;49.404;8.248;2023-12-28T07:31:27;1.80;;;1.60;;
30147;SDS011;16960;49.404;8.248;2023-12-28T07:33:56;2.17;;;1.20;;
30147;SDS011;16960;49.404;8.248;2023-12-28T07:36:23;1.60;;;1.50;;
30147;SDS011;16960;49.404;8.248;2023-12-28T07:38:50;1.83;;;1.60;;
30147;SDS011;16960;49.404;8.248;2023-12-28T07:41:17;1.20;;;1.10;;
30147;SDS011;16960;49.404;8.248;2023-12-28T07:43:44;1.60;;;1.50;;
30147;SDS011;16960;49.404;8.248;2023-12-28T07:46:12;1.50;;;1.40;;
30147;SDS011;16960;49.404;8.248;2023-12-28T07:48:39;1.80;;;1.40;;
30147;SDS011;16960;49.404;8.248;2023-12-28T07:51:06;1.53;;;1.43;;
30147;SDS011;16960;49.404;8.248;2023-12-28T07:53:33;1.80;;;1.40;;
30147;SDS011;16960;49.404;8.248;2023-12-28T07:56:00;1.53;;;1.10;;
30147;SDS011;16960;49.404;8.248;2023-12-28T07:58:27;1.20;;;1.10;;
30147;SDS011;16960;49.404;8.248;2023-12-28T08:00:54;1.40;;;1.30;;
30147;SDS011;16960;49.404;8.248;2023-12-28T08:03:21;1.40;;;1.30;;
30147;SDS011;16960;49.404;8.248;2023-12-28T08:05:48;1.90;;;1.37;;
30147;SDS011;16960;49.404;8.248;2023-12-28T08:08:15;2.20;;;1.90;;
30147;SDS011;16960;49.404;8.248;2023-12-28T08:10:42;1.50;;;1.40;;
30147;SDS011;16960;49.404;8.248;2023-12-28T08:13:09;2.30;;;1.40;;
30147;SDS011;16960;49.404;8.248;2023-12-28T08:15:35;1.53;;;1.40;;
30147;SDS011;16960;49.404;8.248;2023-12-28T08:18:03;1.03;;;0.93;;
30147;SDS011;16960;49.404;8.248;2023-12-28T08:20:31;1.30;;;1.20;;
30147;SDS011;16960;49.404;8.248;2023-12-28T08:22:58;1.60;;;1.07;;
30147;SDS011;16960;49.404;8.248;2023-12-28T08:25:26;2.20;;;1.90;;
30147;SDS011;16960;49.404;8.248;2023-12-28T08:27:52;1.60;;;1.50;;
30147;SDS011;16960;49.404;8.248;2023-12-28T08:30:19;2.10;;;1.90;;
30147;SDS011;16960;49.404;8.248;2023-12-28T08:32:46;1.33;;;1.23;;
30147;SDS011;16960;49.404;8.248;2023-12-28T08:35:13;3.50;;;1.37;;
30147;SDS011;16960;49.404;8.248;2023-12-28T08:37:42;2.30;;;1.47;;
30147;SDS011;16960;49.404;8.248;2023-12-28T08:40:09;2.50;;;1.37;;
30147;SDS011;16960;49.404;8.248;2023-12-28T08:42:36;1.30;;;1.07;;
30147;SDS011;16960;49.404;8.248;2023-12-28T08:45:04;1.60;;;1.50;;
30147;SDS011;16960;49.404;8.248;2023-12-28T08:47:31;1.80;;;1.40;;
30147;SDS011;16960;49.404;8.248;2023-12-28T08:49:58;1.80;;;1.53;;
30147;SDS011;16960;49.404;8.248;2023-12-28T08:52:25;1.53;;;1.30;;
30147;SDS011;16960;49.404;8.248;2023-12-28T08:54:53;2.50;;;1.83;;
30147;SDS011;16960;49.404;8.248;2023-12-28T08:57:20;1.67;;;1.57;;
30147;SDS011;16960;49.404;8.248;2023-12-28T08:59:48;2.03;;;1.60;;
30147;SDS011;16960;49.404;8.248;2023-12-28T09:02:13;2.47;;;1.37;;
30147;SDS011;16960;49.404;8.248;2023-12-28T09:04:40;1.60;;;1.40;;
30147;SDS011;16960;49.404;8.248;2023-12-28T09:07:07;1.97;;;1.40;;
30147;SDS011;16960;49.404;8.248;2023-12-28T09:09:34;1.20;;;1.03;;
30147;SDS011;16960;49.404;8.248;2023-12-28T09:12:03;2.00;;;1.43;;
30147;SDS011;16960;49.404;8.248;2023-12-28T09:14:30;2.10;;;1.57;;
30147;SDS011;16960;49.404;8.248;2023-12-28T09:16:57;1.50;;;1.40;;
30147;SDS011;16960;49.404;8.248;2023-12-28T09:19:24;4.10;;;1.40;;
30147;SDS011;16960;49.404;8.248;2023-12-28T09:21:51;1.87;;;1.70;;
30147;SDS011;16960;49.404;8.248;2023-12-28T09:24:18;2.60;;;1.70;;
30147;SDS011;16960;49.404;8.248;2023-12-28T09:26:45;2.90;;;1.57;;
30147;SDS011;16960;49.404;8.248;2023-12-28T09:29:13;2.13;;;1.80;;
30147;SDS011;16960;49.404;8.248;2023-12-28T09:31:40;1.70;;;1.60;;
30147;SDS011;16960;49.404;8.248;2023-12-28T09:34:07;1.80;;;1.70;;
30147;SDS011;16960;49.404;8.248;2023-12-28T09:36:34;1.37;;;1.27;;
30147;SDS011;16960;49.404;8.248;2023-12-28T09:39:01;1.63;;;1.53;;
30147;SDS011;16960;49.404;8.248;2023-12-28T09:41:30;4.73;;;1.70;;
30147;SDS011;16960;49.404;8.248;2023-12-28T09:44:04;1.40;;;1.30;;
30147;SDS011;16960;49.404;8.248;2023-12-28T09:46:35;1.67;;;1.50;;
30147;SDS011;16960;49.404;8.248;2023-12-28T09:49:04;1.77;;;1.53;;
30147;SDS011;16960;49.404;8.248;2023-12-28T09:51:31;2.90;;;1.70;;
30147;SDS011;16960;49.404;8.248;2023-12-28T09:53:58;2.93;;;1.70;;
30147;SDS011;16960;49.404;8.248;2023-12-28T09:56:25;2.20;;;1.10;;
30147;SDS011;16960;49.404;8.248;2023-12-28T09:58:52;1.43;;;1.33;;
30147;SDS011;16960;49.404;8.248;2023-12-28T10:01:21;3.73;;;1.50;;
30147;SDS011;16960;49.404;8.248;2023-12-28T10:03:49;2.17;;;1.60;;
30147;SDS011;16960;49.404;8.248;2023-12-28T10:06:16;3.03;;;1.20;;
30147;SDS011;16960;49.404;8.248;2023-12-28T10:08:47;1.50;;;1.40;;
30147;SDS011;16960;49.404;8.248;2023-12-28T10:11:15;5.00;;;1.80;;
30147;SDS011;16960;49.404;8.248;2023-12-28T10:13:42;1.53;;;1.43;;
30147;SDS011;16960;49.404;8.248;2023-12-28T10:16:09;3.30;;;1.40;;
30147;SDS011;16960;49.404;8.248;2023-12-28T10:18:39;2.40;;;1.50;;
30147;SDS011;16960;49.404;8.248;2023-12-28T10:21:08;1.50;;;1.40;;
30147;SDS011;16960;49.404;8.248;2023-12-28T10:23:36;1.30;;;1.20;;
30147;SDS011;16960;49.404;8.248;2023-12-28T10:26:03;2.77;;;1.47;;
30147;SDS011;16960;49.404;8.248;2023-12-28T10:28:31;3.60;;;1.50;;
30147;SDS011;16960;49.404;8.248;2023-12-28T10:30:59;1.50;;;1.23;;
30147;SDS011;16960;49.404;8.248;2023-12-28T10:33:26;2.23;;;1.53;;
30147;SDS011;16960;49.404;8.248;2023-12-28T10:35:53;1.50;;;1.40;;
30147;SDS011;16960;49.404;8.248;2023-12-28T10:38:25;3.63;;;1.57;;
30147;SDS011;16960;49.404;8.248;2023-12-28T10:40:54;2.63;;;1.53;;
30147;SDS011;16960;49.404;8.248;2023-12-28T10:43:21;2.63;;;1.33;;
30147;SDS011;16960;49.404;8.248;2023-12-28T10:45:51;1.40;;;1.30;;
30147;SDS011;16960;49.404;8.248;2023-12-28T10:48:21;2.17;;;1.47;;
30147;SDS011;16960;49.404;8.248;2023-12-28T10:50:55;1.80;;;1.30;;
30147;SDS011;16960;49.404;8.248;2023-12-28T10:53:38;3.70;;;1.50;;
30147;SDS011;16960;49.404;8.248;2023-12-28T10:56:14;2.30;;;1.40;;
30147;SDS011;16960;49.404;8.248;2023-12-28T10:58:49;2.70;;;2.13;;
30147;SDS011;16960;49.404;8.248;2023-12-28T11:01:17;2.00;;;1.60;;
30147;SDS011;16960;49.404;8.248;2023-12-28T11:03:51;1.63;;;1.50;;
30147;SDS011;16960;49.404;8.248;2023-12-28T11:06:24;2.43;;;1.60;;
30147;SDS011;16960;49.404;8.248;2023-12-28T11:08:55;1.50;;;1.40;;
30147;SDS011;16960;49.404;8.248;2023-12-28T11:11:23;1.60;;;1.50;;
30147;SDS011;16960;49.404;8.248;2023-12-28T11:13:51;1.43;;;1.33;;
30147;SDS011;16960;49.404;8.248;2023-12-28T11:16:21;2.20;;;2.00;;
30147;SDS011;16960;49.404;8.248;2023-12-28T11:18:48;3.70;;;1.00;;
30147;SDS011;16960;49.404;8.248;2023-12-28T11:21:17;1.30;;;1.20;;
30147;SDS011;16960;49.404;8.248;2023-12-28T11:23:50;1.97;;;1.47;;
30147;SDS011;16960;49.404;8.248;2023-12-28T11:26:19;1.93;;;1.10;;
30147;SDS011;16960;49.404;8.248;2023-12-28T11:28:47;1.50;;;1.40;;
30147;SDS011;16960;49.404;8.248;2023-12-28T11:31:15;1.70;;;1.60;;
30147;SDS011;16960;49.404;8.248;2023-12-28T11:33:43;1.40;;;1.30;;
30147;SDS011;16960;49.404;8.248;2023-12-28T11:36:11;1.20;;;1.10;;
30147;SDS011;16960;49.404;8.248;2023-12-28T11:38:39;1.50;;;1.10;;
30147;SDS011;16960;49.404;8.248;2023-12-28T11:41:07;1.30;;;1.20;;
30147;SDS011;16960;49.404;8.248;2023-12-28T11:43:36;1.50;;;1.10;;
30147;SDS011;16960;49.404;8.248;2023-12-28T11:46:03;1.43;;;1.27;;
30147;SDS011;16960;49.404;8.248;2023-12-28T11:48:31;1.50;;;1.40;;
30147;SDS011;16960;49.404;8.248;2023-12-28T11:50:58;1.70;;;1.00;;
30147;SDS011;16960;49.404;8.248;2023-12-28T11:53:27;1.70;;;1.60;;
30147;SDS011;16960;49.404;8.248;2023-12-28T11:55:59;1.33;;;1.23;;
30147;SDS011;16960;49.404;8.248;2023-12-28T11:58:28;1.50;;;1.30;;
30147;SDS011;16960;49.404;8.248;2023-12-28T12:00:56;1.23;;;1.13;;
30147;SDS011;16960;49.404;8.248;2023-12-28T12:03:24;1.63;;;1.30;;
30147;SDS011;16960;49.404;8.248;2023-12-28T12:05:51;2.20;;;1.63;;
30147;SDS011;16960;49.404;8.248;2023-12-28T12:08:19;1.83;;;1.40;;
30147;SDS011;16960;49.404;8.248;2023-12-28T12:10:46;1.47;;;1.20;;
30147;SDS011;16960;49.404;8.248;2023-12-28T12:13:13;2.70;;;1.53;;
30147;SDS011;16960;49.404;8.248;2023-12-28T12:15:41;2.20;;;1.73;;
30147;SDS011;16960;49.404;8.248;2023-12-28T12:18:09;2.60;;;1.60;;
30147;SDS011;16960;49.404;8.248;2023-12-28T12:20:37;2.60;;;1.97;;
30147;SDS011;16960;49.404;8.248;2023-12-28T12:23:04;1.50;;;1.40;;
30147;SDS011;16960;49.404;8.248;2023-12-28T12:25:31;1.80;;;1.50;;
30147;SDS011;16960;49.404;8.248;2023-12-28T12:27:57;3.30;;;1.73;;
30147;SDS011;16960;49.404;8.248;2023-12-28T12:30:23;4.23;;;1.70;;
30147;SDS011;16960;49.404;8.248;2023-12-28T12:32:50;2.90;;;2.10;;
30147;SDS011;16960;49.404;8.248;2023-12-28T12:35:19;1.50;;;1.40;;
30147;SDS011;16960;49.404;8.248;2023-12-28T12:37:46;1.20;;;1.10;;
30147;SDS011;16960;49.404;8.248;2023-12-28T12:40:14;1.50;;;1.40;;
30147;SDS011;16960;49.404;8.248;2023-12-28T12:42:42;1.50;;;1.10;;
30147;SDS011;16960;49.404;8.248;2023-12-28T12:45:18;1.80;;;1.30;;
30147;SDS011;16960;49.404;8.248;2023-12-28T12:47:46;1.43;;;1.30;;
30147;SDS011;16960;49.404;8.248;2023-12-28T12:50:13;1.70;;;1.30;;
30147;SDS011;16960;49.404;8.248;2023-12-28T12:52:42;2.57;;;1.50;;
30147;SDS011;16960;49.404;8.248;2023-12-28T12:55:10;1.40;;;1.20;;
30147;SDS011;16960;49.404;8.248;2023-12-28T12:57:37;1.40;;;1.30;;
30147;SDS011;16960;49.404;8.248;2023-12-28T13:00:05;1.57;;;1.30;;
30147;SDS011;16960;49.404;8.248;2023-12-28T13:02:34;1.97;;;1.80;;
30147;SDS011;16960;49.404;8.248;2023-12-28T13:05:01;1.63;;;1.30;;
30147;SDS011;16960;49.404;8.248;2023-12-28T13:07:29;2.20;;;1.50;;
30147;SDS011;16960;49.404;8.248;2023-12-28T13:09:57;1.53;;;1.23;;
30147;SDS011;16960;49.404;8.248;2023-12-28T13:12:24;1.37;;;1.20;;
30147;SDS011;16960;49.404;8.248;2023-12-28T13:14:51;1.50;;;1.40;;
30147;SDS011;16960;49.404;8.248;2023-12-28T13:17:18;1.83;;;1.40;;
30147;SDS011;16960;49.404;8.248;2023-12-28T13:19:45;1.37;;;1.27;;
30147;SDS011;16960;49.404;8.248;2023-12-28T13:22:12;1.50;;;1.20;;
30147;SDS011;16960;49.404;8.248;2023-12-28T13:24:39;1.33;;;1.10;;
30147;SDS011;16960;49.404;8.248;2023-12-28T13:27:07;1.50;;;1.40;;
30147;SDS011;16960;49.404;8.248;2023-12-28T13:29:35;1.70;;;1.57;;
30147;SDS011;16960;49.404;8.248;2023-12-28T13:32:02;1.30;;;1.20;;
30147;SDS011;16960;49.404;8.248;2023-12-28T13:34:29;1.70;;;1.40;;
30147;SDS011;16960;49.404;8.248;2023-12-28T13:37:01;2.03;;;1.83;;
30147;SDS011;16960;49.404;8.248;2023-12-28T13:39:49;1.70;;;1.60;;
30147;SDS011;16960;49.404;8.248;2023-12-28T13:43:00;1.23;;;1.10;;
30147;SDS011;16960;49.404;8.248;2023-12-28T13:45:27;1.50;;;1.40;;
30147;SDS011;16960;49.404;8.248;2023-12-28T13:47:53;1.97;;;1.30;;
30147;SDS011;16960;49.404;8.248;2023-12-28T13:50:20;2.80;;;1.40;;
30147;SDS011;16960;49.404;8.248;2023-12-28T13:52:47;1.20;;;1.10;;
30147;SDS011;16960;49.404;8.248;2023-12-28T13:55:14;1.30;;;1.10;;
30147;SDS011;16960;49.404;8.248;2023-12-28T13:57:41;1.80;;;1.50;;
30147;SDS011;16960;49.404;8.248;2023-12-28T14:00:10;1.33;;;1.23;;
30147;SDS011;16960;49.404;8.248;2023-12-28T14:02:38;1.40;;;1.23;;
30147;SDS011;16960;49.404;8.248;2023-12-28T14:05:06;2.73;;;1.53;;
30147;SDS011;16960;49.404;8.248;2023-12-28T14:07:33;1.67;;;1.57;;
30147;SDS011;16960;49.404;8.248;2023-12-28T14:09:59;1.57;;;1.47;;
30147;SDS011;16960;49.404;8.248;2023-12-28T14:12:26;2.43;;;1.47;;
30147;SDS011;16960;49.404;8.248;2023-12-28T14:14:53;2.87;;;1.37;;
30147;SDS011;16960;49.404;8.248;2023-12-28T14:17:22;3.70;;;1.57;;
30147;SDS011;16960;49.404;8.248;2023-12-28T14:19:49;3.37;;;1.30;;
30147;SDS011;16960;49.404;8.248;2023-12-28T14:22:16;4.27;;;1.63;;
30147;SDS011;16960;49.404;8.248;2023-12-28T14:24:43;3.73;;;1.50;;
30147;SDS011;16960;49.404;8.248;2023-12-28T14:27:11;1.70;;;1.43;;
30147;SDS011;16960;49.404;8.248;2023-12-28T14:29:38;1.53;;;1.43;;
30147;SDS011;16960;49.404;8.248;2023-12-28T14:32:06;1.63;;;1.07;;
30147;SDS011;16960;49.404;8.248;2023-12-28T14:34:35;2.27;;;1.53;;
30147;SDS011;16960;49.404;8.248;2023-12-28T14:37:03;1.43;;;1.30;;
30147;SDS011;16960;49.404;8.248;2023-12-28T14:39:30;2.43;;;1.10;;
30147;SDS011;16960;49.404;8.248;2023-12-28T14:41:57;4.60;;;1.47;;
30147;SDS011;16960;49.404;8.248;2023-12-28T14:44:28;2.20;;;1.20;;
30147;SDS011;16960;49.404;8.248;2023-12-28T14:46:55;1.40;;;1.30;;
30147;SDS011;16960;49.404;8.248;2023-12-28T14:49:22;2.07;;;1.60;;
30147;SDS011;16960;49.404;8.248;2023-12-28T14:51:50;1.70;;;1.30;;
30147;SDS011;16960;49.404;8.248;2023-12-28T14:54:17;1.53;;;1.20;;
30147;SDS011;16960;49.404;8.248;2023-12-28T14:56:44;1.37;;;1.27;;